Terminal Aerodrome Forecast
Issued by NWS

Home | Current Version | Previous Version | Text Only | Print | Product List | Glossary On
Versions: 1 2 3 4 5 6 7 8 9 10 11 12 13 14 15 16 17 18 19 20 21 22
611
FTUS41 KBGM 032320
TAFITH
TAF
KITH 032320Z 0400/0424 VRB02KT P6SM BKN035
     FM040400 VRB02KT 4SM -DZ BR OVC015
      TEMPO 0408/0412 2SM -DZ BR
     FM041500 14006KT 5SM -RA BR OVC015=

USA.gov is the U.S. government's official web portal to all federal, state and local government web resources and services.